createdAt,value
2023-07-29T00:01:31.134Z,22.60
2023-07-29T00:04:02.198Z,22.60
2023-07-29T00:06:33.397Z,22.50
2023-07-29T00:09:04.821Z,22.50
2023-07-29T00:11:36.835Z,22.50
2023-07-29T00:14:09.250Z,22.50
2023-07-29T00:16:40.205Z,22.50
2023-07-29T00:19:11.142Z,22.50
2023-07-29T00:21:42.937Z,22.50
2023-07-29T00:24:14.656Z,22.50
2023-07-29T00:26:45.130Z,22.40
2023-07-29T00:29:17.426Z,22.40
2023-07-29T00:31:47.941Z,22.50
2023-07-29T00:34:22.077Z,22.60
2023-07-29T00:36:52.529Z,22.60
2023-07-29T00:39:24.496Z,22.60
2023-07-29T00:41:55.703Z,22.60
2023-07-29T00:44:28.087Z,22.60
2023-07-29T00:46:59.065Z,22.60
2023-07-29T00:49:29.888Z,22.50
2023-07-29T00:52:01.149Z,22.60
2023-07-29T00:54:31.679Z,22.50
2023-07-29T00:57:03.010Z,22.60
2023-07-29T00:59:35.945Z,22.60
2023-07-29T01:02:07.262Z,22.70
2023-07-29T01:04:37.925Z,22.60
2023-07-29T01:07:16.358Z,22.50
2023-07-29T01:09:54.870Z,22.50
2023-07-29T01:12:30.503Z,22.30
2023-07-29T01:15:09.764Z,22.30
2023-07-29T01:17:44.078Z,22.20
2023-07-29T01:20:18.377Z,22.10
2023-07-29T01:22:49.442Z,22.10
2023-07-29T01:25:21.786Z,22.00
2023-07-29T01:27:54.256Z,22.00
2023-07-29T01:30:29.426Z,22.00
2023-07-29T01:33:07.128Z,22.00
2023-07-29T01:35:44.389Z,21.90
2023-07-29T01:38:21.023Z,21.90
2023-07-29T01:40:56.529Z,21.90
2023-07-29T01:43:33.102Z,21.90
2023-07-29T01:46:10.708Z,21.90
2023-07-29T01:48:41.456Z,21.90
2023-07-29T01:51:14.097Z,21.90
2023-07-29T01:53:44.563Z,22.00
2023-07-29T01:56:16.741Z,22.00
2023-07-29T01:58:47.184Z,22.00
2023-07-29T02:01:17.956Z,21.90
2023-07-29T02:03:49.975Z,21.90
2023-07-29T02:06:21.211Z,21.80
2023-07-29T02:08:51.747Z,21.70
2023-07-29T02:11:29.351Z,21.60
2023-07-29T02:14:00.120Z,21.60
2023-07-29T02:16:30.963Z,21.50
2023-07-29T02:19:03.613Z,21.40
2023-07-29T02:21:34.255Z,21.30
2023-07-29T02:24:10.422Z,21.30
2023-07-29T02:26:43.389Z,21.30
2023-07-29T02:29:14.731Z,21.20
2023-07-29T02:31:46.545Z,21.20
2023-07-29T02:34:17.527Z,21.20
2023-07-29T02:36:48.018Z,21.20
2023-07-29T02:39:18.480Z,21.20
2023-07-29T02:41:50.608Z,21.10
2023-07-29T02:44:21.331Z,21.00
2023-07-29T02:46:51.849Z,21.00
2023-07-29T02:49:22.492Z,21.00
2023-07-29T02:51:53.185Z,21.00
2023-07-29T02:54:23.808Z,21.00
2023-07-29T02:56:56.907Z,20.90
2023-07-29T02:59:27.412Z,20.90
2023-07-29T03:01:58.491Z,20.90
2023-07-29T03:04:29.048Z,20.90
2023-07-29T03:07:01.342Z,20.90
2023-07-29T03:09:31.818Z,20.90
2023-07-29T03:12:04.093Z,20.90
2023-07-29T03:14:35.148Z,20.90
2023-07-29T03:17:07.711Z,20.90
2023-07-29T03:19:38.217Z,20.90
2023-07-29T03:22:09.389Z,20.90
2023-07-29T03:24:39.839Z,20.90
2023-07-29T03:27:13.130Z,20.80
2023-07-29T03:29:43.942Z,20.80
2023-07-29T03:32:15.226Z,20.80
2023-07-29T03:34:45.639Z,20.70
2023-07-29T03:37:16.164Z,20.70
2023-07-29T03:39:46.973Z,20.60
2023-07-29T03:42:19.506Z,20.60
2023-07-29T03:44:49.984Z,20.40
2023-07-29T03:47:20.513Z,20.30
2023-07-29T03:49:51.252Z,20.30
2023-07-29T03:52:21.872Z,20.20
2023-07-29T03:54:52.330Z,20.20
2023-07-29T03:57:24.537Z,20.10
2023-07-29T03:59:55.481Z,20.10
2023-07-29T04:02:26.380Z,20.10
2023-07-29T04:04:56.953Z,20.00
2023-07-29T04:07:28.724Z,20.00
2023-07-29T04:09:59.559Z,19.90
2023-07-29T04:12:32.674Z,19.90
2023-07-29T04:15:03.174Z,19.90
2023-07-29T04:17:33.809Z,20.00
2023-07-29T04:20:04.789Z,20.00
2023-07-29T04:22:35.322Z,20.00
2023-07-29T04:25:06.454Z,20.00
2023-07-29T04:27:38.908Z,19.90
2023-07-29T04:30:10.705Z,19.90
2023-07-29T04:32:41.343Z,19.90
2023-07-29T04:35:12.478Z,19.90
2023-07-29T04:37:43.015Z,19.90
2023-07-29T04:40:14.241Z,20.00
2023-07-29T04:42:46.400Z,20.00
2023-07-29T04:45:17.926Z,20.00
2023-07-29T04:47:48.452Z,20.20
2023-07-29T04:50:19.222Z,20.30
2023-07-29T04:52:49.728Z,20.40
2023-07-29T04:55:20.699Z,20.30
2023-07-29T04:57:52.838Z,20.20
2023-07-29T05:00:23.893Z,20.10
2023-07-29T05:02:54.907Z,20.00
2023-07-29T05:05:25.431Z,19.90
2023-07-29T05:07:55.960Z,19.80
2023-07-29T05:10:26.685Z,19.70
2023-07-29T05:12:59.232Z,19.60
2023-07-29T05:15:29.796Z,19.50
2023-07-29T05:18:01.852Z,19.50
2023-07-29T05:20:32.364Z,19.40
2023-07-29T05:23:02.875Z,19.30
2023-07-29T05:25:33.413Z,19.20
2023-07-29T05:28:06.139Z,19.20
2023-07-29T05:30:39.136Z,19.10
2023-07-29T05:33:10.837Z,19.00
2023-07-29T05:35:41.643Z,18.90
2023-07-29T05:38:12.178Z,18.90
2023-07-29T05:40:43.294Z,18.90
2023-07-29T05:43:16.391Z,18.80
2023-07-29T05:45:46.841Z,18.80
2023-07-29T05:48:17.342Z,18.70
2023-07-29T05:50:47.960Z,18.60
2023-07-29T05:53:18.860Z,18.60
2023-07-29T05:55:49.311Z,18.50
2023-07-29T05:58:21.486Z,18.30
2023-07-29T06:00:52.704Z,18.20
2023-07-29T06:03:23.336Z,18.20
2023-07-29T06:05:55.149Z,18.10
2023-07-29T06:08:26.024Z,18.00
2023-07-29T06:10:56.487Z,18.00
2023-07-29T06:13:28.921Z,17.90
2023-07-29T06:15:59.546Z,17.80
2023-07-29T06:18:30.138Z,17.80
2023-07-29T06:21:00.707Z,17.70
2023-07-29T06:23:31.434Z,17.60
2023-07-29T06:26:02.291Z,17.50
2023-07-29T06:28:34.487Z,17.50
2023-07-29T06:31:05.176Z,17.50
2023-07-29T06:33:35.861Z,17.40
2023-07-29T06:36:06.652Z,17.40
2023-07-29T06:38:37.870Z,17.30
2023-07-29T06:41:08.366Z,17.20
2023-07-29T06:43:40.577Z,17.20
2023-07-29T06:46:11.188Z,17.10
2023-07-29T06:48:41.727Z,17.10
2023-07-29T06:51:12.164Z,17.10
2023-07-29T06:53:43.031Z,17.10
2023-07-29T06:56:13.536Z,17.00
2023-07-29T06:58:45.648Z,17.00
2023-07-29T07:01:16.569Z,16.90
2023-07-29T07:03:47.089Z,16.90
2023-07-29T07:06:17.552Z,16.80
2023-07-29T07:08:48.258Z,16.80
2023-07-29T07:11:18.968Z,16.80
2023-07-29T07:13:51.699Z,16.70
2023-07-29T07:16:22.285Z,16.70
2023-07-29T07:18:53.137Z,16.70
2023-07-29T07:21:23.553Z,16.60
2023-07-29T07:23:54.369Z,16.60
2023-07-29T07:26:24.791Z,16.50
2023-07-29T07:28:56.964Z,16.40
2023-07-29T07:31:28.142Z,16.40
2023-07-29T07:33:58.806Z,16.30
2023-07-29T07:36:29.267Z,16.30
2023-07-29T07:38:59.837Z,16.30
2023-07-29T07:41:30.334Z,16.20
2023-07-29T07:44:03.018Z,16.20
2023-07-29T07:46:33.652Z,16.20
2023-07-29T07:49:04.548Z,16.10
2023-07-29T07:51:35.043Z,16.10
2023-07-29T07:54:05.876Z,15.90
2023-07-29T07:56:36.648Z,15.80
2023-07-29T07:59:10.318Z,15.80
2023-07-29T08:01:42.048Z,15.80
2023-07-29T08:04:12.804Z,15.80
2023-07-29T08:06:43.587Z,15.80
2023-07-29T08:09:14.066Z,15.70
2023-07-29T08:11:44.923Z,15.70
2023-07-29T08:14:18.071Z,15.70
2023-07-29T08:16:48.541Z,15.70
2023-07-29T08:19:21.048Z,15.70
2023-07-29T08:21:52.973Z,15.70
2023-07-29T08:24:23.495Z,15.60
2023-07-29T08:26:53.941Z,15.60
2023-07-29T08:29:26.122Z,15.60
2023-07-29T08:31:57.142Z,15.70
2023-07-29T08:34:28.733Z,15.70
2023-07-29T08:36:59.280Z,15.70
2023-07-29T08:39:31.280Z,15.80
2023-07-29T08:42:06.739Z,15.70
2023-07-29T08:44:44.192Z,15.80
2023-07-29T08:47:16.244Z,15.70
2023-07-29T08:49:47.927Z,15.60
2023-07-29T08:52:19.796Z,15.60
2023-07-29T08:54:50.938Z,15.60
2023-07-29T08:57:22.278Z,15.60
2023-07-29T08:59:55.062Z,15.60
2023-07-29T09:02:25.647Z,15.70
2023-07-29T09:04:56.273Z,15.70
2023-07-29T09:07:27.034Z,15.70
2023-07-29T09:09:57.558Z,15.70
2023-07-29T09:12:28.332Z,15.70
2023-07-29T09:15:00.861Z,15.60
2023-07-29T09:17:36.269Z,15.60
2023-07-29T09:20:07.120Z,15.60
2023-07-29T09:22:37.938Z,15.70
2023-07-29T09:25:09.070Z,15.70
2023-07-29T09:27:41.451Z,15.70
2023-07-29T09:30:20.086Z,15.60
2023-07-29T09:32:50.589Z,15.60
2023-07-29T09:35:21.282Z,15.50
2023-07-29T09:37:51.816Z,15.50
2023-07-29T09:40:22.780Z,15.50
2023-07-29T09:42:54.403Z,15.40
2023-07-29T09:45:30.995Z,15.40
2023-07-29T09:48:01.908Z,15.40
2023-07-29T09:50:32.926Z,15.40
2023-07-29T09:53:04.767Z,15.50
2023-07-29T09:55:37.397Z,15.50
2023-07-29T09:58:09.977Z,15.50
2023-07-29T10:00:42.663Z,15.60
2023-07-29T10:03:13.478Z,15.60
2023-07-29T10:05:44.871Z,15.70
2023-07-29T10:08:16.343Z,15.70
2023-07-29T10:10:47.596Z,15.80
2023-07-29T10:13:18.661Z,15.80
2023-07-29T10:15:52.190Z,15.80
2023-07-29T10:18:23.432Z,15.80
2023-07-29T10:20:56.327Z,15.80
2023-07-29T10:23:28.783Z,15.90
2023-07-29T10:26:05.933Z,15.90
2023-07-29T10:28:40.271Z,15.90
2023-07-29T10:31:13.278Z,16.00
2023-07-29T10:33:44.147Z,16.00
2023-07-29T10:36:15.985Z,16.10
2023-07-29T10:38:46.732Z,16.10
2023-07-29T10:41:17.275Z,16.20
2023-07-29T10:43:47.811Z,16.30
2023-07-29T10:46:24.552Z,16.30
2023-07-29T10:49:00.894Z,16.40
2023-07-29T10:51:34.228Z,16.40
2023-07-29T10:54:06.326Z,16.50
2023-07-29T10:56:38.758Z,16.50
2023-07-29T10:59:36.003Z,16.50
2023-07-29T11:02:18.721Z,16.60
2023-07-29T11:04:54.787Z,16.70
2023-07-29T11:07:32.381Z,16.70
2023-07-29T11:10:06.099Z,16.70
2023-07-29T11:12:47.472Z,16.80
2023-07-29T11:15:20.227Z,16.90
2023-07-29T11:17:54.360Z,16.90
2023-07-29T11:20:26.427Z,16.90
2023-07-29T11:22:58.014Z,17.00
2023-07-29T11:25:30.021Z,17.00
2023-07-29T11:28:06.549Z,17.10
2023-07-29T11:30:37.852Z,17.10
2023-07-29T11:33:10.115Z,17.20
2023-07-29T11:35:41.366Z,17.20
2023-07-29T11:38:12.609Z,17.30
2023-07-29T11:40:43.093Z,17.30
2023-07-29T11:43:21.092Z,17.40
2023-07-29T11:45:52.660Z,17.40
2023-07-29T11:48:30.958Z,17.50
2023-07-29T11:51:01.662Z,17.60
2023-07-29T11:53:33.823Z,17.60
2023-07-29T11:56:04.339Z,17.60
2023-07-29T11:58:35.333Z,17.70
2023-07-29T12:01:07.005Z,17.70
2023-07-29T12:03:40.752Z,17.70
2023-07-29T12:06:12.528Z,17.70
2023-07-29T12:08:43.738Z,17.70
2023-07-29T12:11:14.505Z,17.70
2023-07-29T12:13:46.655Z,17.70
2023-07-29T12:16:21.726Z,17.60
2023-07-29T12:18:54.463Z,17.60
2023-07-29T12:21:25.110Z,17.50
2023-07-29T12:23:56.503Z,17.50
2023-07-29T12:26:32.026Z,17.60
2023-07-29T12:29:03.117Z,17.60
2023-07-29T12:31:36.526Z,17.60
2023-07-29T12:34:09.225Z,17.50
2023-07-29T12:36:48.311Z,17.50
2023-07-29T12:39:24.610Z,17.40
2023-07-29T12:41:57.220Z,17.40
2023-07-29T12:44:28.330Z,17.40
2023-07-29T12:46:59.174Z,17.40
2023-07-29T12:49:31.910Z,17.40
2023-07-29T12:52:04.231Z,17.50
2023-07-29T12:54:34.820Z,17.50
2023-07-29T12:57:05.459Z,17.60
2023-07-29T12:59:36.632Z,17.70
2023-07-29T13:02:08.260Z,17.80
2023-07-29T13:04:41.120Z,17.90
2023-07-29T13:07:12.132Z,18.00
2023-07-29T13:09:42.668Z,18.20
2023-07-29T13:12:13.260Z,18.20
2023-07-29T13:14:43.995Z,18.30
2023-07-29T13:17:14.454Z,18.30
2023-07-29T13:19:46.559Z,18.20
2023-07-29T13:22:17.095Z,18.30
2023-07-29T13:24:47.595Z,18.30
2023-07-29T13:27:18.110Z,18.30
2023-07-29T13:29:48.786Z,18.40
2023-07-29T13:32:19.242Z,18.40
2023-07-29T13:34:51.542Z,18.50
2023-07-29T13:37:22.009Z,18.60
2023-07-29T13:39:52.894Z,18.80
2023-07-29T13:42:23.723Z,18.90
2023-07-29T13:44:54.454Z,19.10
2023-07-29T13:47:25.009Z,19.40
2023-07-29T13:49:57.196Z,19.50
2023-07-29T13:52:27.883Z,19.60
2023-07-29T13:54:58.768Z,19.70
2023-07-29T13:57:29.321Z,19.60
2023-07-29T14:00:01.140Z,19.70
2023-07-29T14:02:32.933Z,19.60
2023-07-29T14:05:05.583Z,19.60
2023-07-29T14:07:36.585Z,19.60
2023-07-29T14:10:07.549Z,19.50
2023-07-29T14:12:38.624Z,19.50
2023-07-29T14:15:10.469Z,19.50
2023-07-29T14:17:41.574Z,19.40
2023-07-29T14:20:15.013Z,19.50
2023-07-29T14:22:45.600Z,19.60
2023-07-29T14:25:16.229Z,19.70
2023-07-29T14:27:46.932Z,19.80
2023-07-29T14:30:17.459Z,19.80
2023-07-29T14:32:47.928Z,19.80
2023-07-29T14:35:20.629Z,19.80
2023-07-29T14:37:51.082Z,19.70
2023-07-29T14:40:21.963Z,19.70
2023-07-29T14:42:52.406Z,19.70
2023-07-29T14:45:23.043Z,19.60
2023-07-29T14:47:53.570Z,19.70
2023-07-29T14:50:25.822Z,19.70
2023-07-29T14:52:56.283Z,19.70
2023-07-29T14:55:26.797Z,19.70
2023-07-29T14:57:57.238Z,19.60
2023-07-29T15:00:28.380Z,19.50
2023-07-29T15:02:58.913Z,19.40
2023-07-29T15:05:31.209Z,19.30
2023-07-29T15:08:01.671Z,19.20
2023-07-29T15:10:33.726Z,19.10
2023-07-29T15:13:04.683Z,19.00
2023-07-29T15:15:35.282Z,18.90
2023-07-29T15:18:05.857Z,18.80
2023-07-29T15:20:38.180Z,18.70
2023-07-29T15:23:08.647Z,18.80
2023-07-29T15:25:40.846Z,18.80
2023-07-29T15:28:11.384Z,18.80
2023-07-29T15:30:43.946Z,18.80
2023-07-29T15:33:15.355Z,18.90
2023-07-29T15:35:47.491Z,18.90
2023-07-29T15:38:18.184Z,19.10
2023-07-29T15:40:50.869Z,19.20
2023-07-29T15:43:21.457Z,19.20
2023-07-29T15:45:53.540Z,19.30
2023-07-29T15:48:24.730Z,19.30
2023-07-29T15:50:56.977Z,19.30
2023-07-29T15:53:28.410Z,19.30
2023-07-29T15:55:59.503Z,19.20
2023-07-29T15:58:34.943Z,19.20
2023-07-29T16:01:08.373Z,19.20
2023-07-29T16:03:39.131Z,19.20
2023-07-29T16:06:11.758Z,19.20
2023-07-29T16:08:42.408Z,19.20
2023-07-29T16:11:13.116Z,19.20
2023-07-29T16:13:43.570Z,19.20
2023-07-29T16:16:14.261Z,19.20
2023-07-29T16:18:45.474Z,19.30
2023-07-29T16:21:18.147Z,19.30
2023-07-29T16:23:54.136Z,19.30
2023-07-29T16:26:24.721Z,19.30
2023-07-29T16:28:55.413Z,19.30
2023-07-29T16:31:26.427Z,19.30
2023-07-29T16:33:57.264Z,19.20
2023-07-29T16:36:29.648Z,19.20
2023-07-29T16:39:00.476Z,19.20
2023-07-29T16:42:02.433Z,19.10
2023-07-29T16:44:21.867Z,18.90
2023-07-29T16:46:52.538Z,18.80
2023-07-29T16:49:23.136Z,18.70
2023-07-29T16:51:55.271Z,18.60
2023-07-29T16:54:26.005Z,18.40
2023-07-29T16:56:56.520Z,18.20
2023-07-29T16:59:27.215Z,18.00
2023-07-29T17:01:58.016Z,17.80
2023-07-29T17:04:29.003Z,17.70
2023-07-29T17:07:01.178Z,17.50
2023-07-29T17:09:31.675Z,17.40
2023-07-29T17:12:02.501Z,17.40
2023-07-29T17:14:32.983Z,17.40
2023-07-29T17:17:03.667Z,17.40
2023-07-29T17:19:34.232Z,17.40
2023-07-29T17:22:06.703Z,17.40
2023-07-29T17:24:37.367Z,17.40
2023-07-29T17:27:08.834Z,17.40
2023-07-29T17:29:39.354Z,17.40
2023-07-29T17:32:10.439Z,17.50
2023-07-29T17:34:40.941Z,17.40
2023-07-29T17:37:13.098Z,17.30
2023-07-29T17:39:44.293Z,17.30
2023-07-29T17:42:15.113Z,17.40
2023-07-29T17:44:45.561Z,17.40
2023-07-29T17:47:17.056Z,17.50
2023-07-29T17:49:47.574Z,17.50
2023-07-29T17:52:19.685Z,17.60
2023-07-29T17:54:50.153Z,17.70
2023-07-29T17:57:20.684Z,17.70
2023-07-29T17:59:51.450Z,17.70
2023-07-29T18:02:22.406Z,17.80
2023-07-29T18:04:52.901Z,17.90
2023-07-29T18:07:25.196Z,17.90
2023-07-29T18:09:56.264Z,18.00
2023-07-29T18:12:26.894Z,18.10
2023-07-29T18:14:57.333Z,18.20
2023-07-29T18:17:27.990Z,18.20
2023-07-29T18:19:59.630Z,18.30
2023-07-29T18:22:32.246Z,18.40
2023-07-29T18:25:03.080Z,18.40
2023-07-29T18:27:33.574Z,18.60
2023-07-29T18:30:03.992Z,18.60
2023-07-29T18:32:34.543Z,18.70
2023-07-29T18:35:05.621Z,18.70
2023-07-29T18:37:37.768Z,18.70
2023-07-29T18:40:09.376Z,18.70
2023-07-29T18:42:40.076Z,18.80
2023-07-29T18:45:11.485Z,18.80
2023-07-29T18:47:42.046Z,18.70
2023-07-29T18:50:12.940Z,18.80
2023-07-29T18:52:45.139Z,18.80
2023-07-29T18:55:15.600Z,18.80
2023-07-29T18:57:46.724Z,18.70
2023-07-29T19:00:17.621Z,18.70
2023-07-29T19:02:48.614Z,18.60
2023-07-29T19:05:20.107Z,18.60
2023-07-29T19:07:52.602Z,18.70
2023-07-29T19:10:23.482Z,18.60
2023-07-29T19:12:58.276Z,18.50
2023-07-29T19:15:28.835Z,18.50
2023-07-29T19:17:59.658Z,18.40
2023-07-29T19:20:31.913Z,18.30
2023-07-29T19:23:04.419Z,18.20
2023-07-29T19:25:34.888Z,18.10
2023-07-29T19:28:05.455Z,18.10
2023-07-29T19:30:35.985Z,18.10
2023-07-29T19:33:06.598Z,18.00
2023-07-29T19:35:38.454Z,17.90
2023-07-29T19:38:11.054Z,17.90
2023-07-29T19:40:41.646Z,17.80
2023-07-29T19:43:12.753Z,17.80
2023-07-29T19:46:15.695Z,17.80
2023-07-29T19:48:40.789Z,17.80
2023-07-29T19:51:11.268Z,17.90
2023-07-29T19:53:43.525Z,17.90
2023-07-29T19:56:13.978Z,17.90
2023-07-29T19:58:46.414Z,17.90
2023-07-29T20:01:18.195Z,17.80
2023-07-29T20:03:48.782Z,17.80
2023-07-29T20:06:19.711Z,17.70
2023-07-29T20:08:54.707Z,17.70
2023-07-29T20:11:25.759Z,17.60
2023-07-29T20:13:56.289Z,17.50
2023-07-29T20:16:29.543Z,17.40
2023-07-29T20:19:00.166Z,17.40
2023-07-29T20:21:30.625Z,17.30
2023-07-29T20:24:05.657Z,17.40
2023-07-29T20:26:37.120Z,17.40
2023-07-29T20:29:08.043Z,17.40
2023-07-29T20:31:38.755Z,17.40
2023-07-29T20:34:09.432Z,17.40
2023-07-29T20:36:39.975Z,17.50
2023-07-29T20:39:12.627Z,17.50
2023-07-29T20:41:43.121Z,17.60
2023-07-29T20:44:14.346Z,17.70
2023-07-29T20:46:44.771Z,17.80
2023-07-29T20:49:15.317Z,17.90
2023-07-29T20:51:45.868Z,17.90
2023-07-29T20:54:18.571Z,17.90
2023-07-29T20:56:49.581Z,18.00
2023-07-29T20:59:20.518Z,18.00
2023-07-29T21:01:51.331Z,18.10
2023-07-29T21:04:21.921Z,18.10
2023-07-29T21:06:52.447Z,18.10
2023-07-29T21:09:24.937Z,18.10
2023-07-29T21:11:56.612Z,18.10
2023-07-29T21:14:27.555Z,18.20
2023-07-29T21:16:58.073Z,18.30
2023-07-29T21:19:28.655Z,18.40
2023-07-29T21:21:59.143Z,18.40
2023-07-29T21:24:31.461Z,18.50
2023-07-29T21:27:01.902Z,18.60
2023-07-29T21:29:32.432Z,18.60
2023-07-29T21:32:03.080Z,18.70
2023-07-29T21:34:33.922Z,18.90
2023-07-29T21:37:05.905Z,19.30
2023-07-29T21:39:39.011Z,20.00
2023-07-29T21:42:10.744Z,20.20
2023-07-29T21:44:41.803Z,20.90
2023-07-29T21:47:12.224Z,21.60
2023-07-29T21:49:42.749Z,21.90
2023-07-29T21:52:13.396Z,22.20
2023-07-29T21:54:45.538Z,22.00
2023-07-29T21:57:16.025Z,22.00
2023-07-29T21:59:47.297Z,22.00
2023-07-29T22:02:18.688Z,22.00
2023-07-29T22:04:49.614Z,22.00
2023-07-29T22:07:20.268Z,22.10
2023-07-29T22:09:52.966Z,22.30
2023-07-29T22:12:24.142Z,22.40
2023-07-29T22:14:54.744Z,22.50
2023-07-29T22:17:25.580Z,22.50
2023-07-29T22:19:56.927Z,22.80
2023-07-29T22:22:27.373Z,22.80
2023-07-29T22:24:59.626Z,23.10
2023-07-29T22:27:30.065Z,23.20
2023-07-29T22:30:00.583Z,23.10
2023-07-29T22:32:33.307Z,23.20
2023-07-29T22:35:04.091Z,23.30
2023-07-29T22:37:35.303Z,23.10
2023-07-29T22:40:09.023Z,22.70
2023-07-29T22:42:39.465Z,22.00
2023-07-29T22:45:11.168Z,22.00
2023-07-29T22:47:41.744Z,22.00
2023-07-29T22:50:13.407Z,21.90
2023-07-29T22:52:43.866Z,21.90
2023-07-29T22:55:15.993Z,21.80
2023-07-29T22:57:46.927Z,21.60
2023-07-29T23:00:19.019Z,21.60
2023-07-29T23:02:49.783Z,21.70
2023-07-29T23:05:20.585Z,21.90
2023-07-29T23:07:51.062Z,22.00
2023-07-29T23:10:23.389Z,21.90
2023-07-29T23:12:54.196Z,21.30
2023-07-29T23:15:24.712Z,21.40
2023-07-29T23:17:55.232Z,21.50
2023-07-29T23:20:27.474Z,21.60
2023-07-29T23:22:58.222Z,21.50
2023-07-29T23:25:30.898Z,21.40
2023-07-29T23:28:01.645Z,21.40
2023-07-29T23:30:32.179Z,21.30
2023-07-29T23:33:03.031Z,21.10
2023-07-29T23:35:34.014Z,21.00
2023-07-29T23:38:04.692Z,20.90
2023-07-29T23:40:36.856Z,20.80
2023-07-29T23:43:07.339Z,20.70
2023-07-29T23:45:38.003Z,20.60
2023-07-29T23:48:08.879Z,20.30
2023-07-29T23:50:40.470Z,20.10
2023-07-29T23:53:11.248Z,20.00
2023-07-29T23:55:43.370Z,19.80
2023-07-29T23:58:14.643Z,19.60
